createdAt,value
2018-01-27T00:02:13.471Z,21.80
2018-01-27T00:04:39.935Z,26.83
2018-01-27T00:07:10.329Z,24.93
2018-01-27T00:09:36.621Z,28.10
2018-01-27T00:12:02.907Z,31.73
2018-01-27T00:14:29.219Z,28.17
2018-01-27T00:16:55.506Z,31.03
2018-01-27T00:19:21.829Z,22.47
2018-01-27T00:21:48.376Z,27.33
2018-01-27T00:24:14.925Z,22.23
2018-01-27T00:26:41.338Z,25.63
2018-01-27T00:29:08.038Z,27.10
2018-01-27T00:31:34.327Z,27.60
2018-01-27T00:34:00.587Z,22.20
2018-01-27T00:36:27.618Z,54.43
2018-01-27T00:38:54.646Z,148.43
2018-01-27T00:41:21.853Z,67.40
2018-01-27T00:43:48.299Z,65.13
2018-01-27T00:46:15.298Z,85.60
2018-01-27T00:48:41.634Z,128.83
2018-01-27T00:51:07.995Z,27.13
2018-01-27T00:53:34.625Z,42.47
2018-01-27T00:56:00.984Z,32.53
2018-01-27T00:58:27.791Z,28.77
2018-01-27T01:00:54.240Z,28.80
2018-01-27T01:03:21.291Z,23.17
2018-01-27T01:05:48.661Z,28.13
2018-01-27T01:08:14.937Z,27.90
2018-01-27T01:10:41.938Z,22.67
2018-01-27T01:13:08.225Z,21.67
2018-01-27T01:15:34.842Z,30.17
2018-01-27T01:18:01.192Z,26.77
2018-01-27T01:20:27.664Z,25.10
2018-01-27T01:22:54.017Z,28.10
2018-01-27T01:25:20.323Z,29.63
2018-01-27T01:27:46.593Z,31.97
2018-01-27T01:30:13.640Z,29.13
2018-01-27T01:32:40.646Z,28.67
2018-01-27T01:35:06.907Z,22.60
2018-01-27T01:37:33.217Z,16.57
2018-01-27T01:39:59.477Z,13.27
2018-01-27T01:42:31.798Z,13.73
2018-01-27T01:44:58.066Z,12.23
2018-01-27T01:47:24.369Z,35.27
2018-01-27T01:49:50.659Z,63.60
2018-01-27T01:52:16.923Z,100.00
2018-01-27T01:54:43.963Z,116.43
2018-01-27T01:57:10.235Z,95.77
2018-01-27T01:59:36.486Z,97.37
2018-01-27T02:02:03.538Z,68.33
2018-01-27T02:04:30.693Z,46.57
2018-01-27T02:06:58.516Z,34.03
2018-01-27T02:09:27.873Z,31.13
2018-01-27T02:11:56.644Z,17.90
2018-01-27T02:14:25.413Z,19.37
2018-01-27T02:16:51.654Z,13.53
2018-01-27T02:19:18.686Z,19.00
2018-01-27T02:21:45.742Z,35.63
2018-01-27T02:24:12.006Z,29.70
2018-01-27T02:26:38.320Z,25.43
2018-01-27T02:29:04.601Z,25.57
2018-01-27T02:31:30.874Z,30.17
2018-01-27T02:33:57.144Z,25.87
2018-01-27T02:36:23.407Z,28.33
2018-01-27T02:38:50.478Z,24.63
2018-01-27T02:41:16.775Z,28.00
2018-01-27T02:43:43.071Z,21.17
2018-01-27T02:46:10.135Z,20.40
2018-01-27T02:48:36.413Z,19.10
2018-01-27T02:51:02.743Z,21.87
2018-01-27T02:53:29.755Z,22.53
2018-01-27T02:55:56.067Z,25.83
2018-01-27T02:58:22.355Z,21.30
2018-01-27T03:00:48.642Z,22.20
2018-01-27T03:03:14.931Z,18.70
2018-01-27T03:05:41.206Z,21.60
2018-01-27T03:08:07.449Z,17.17
2018-01-27T03:10:33.701Z,21.73
2018-01-27T03:12:59.990Z,21.97
2018-01-27T03:15:26.997Z,20.03
2018-01-27T03:17:53.279Z,20.63
2018-01-27T03:20:19.591Z,18.93
2018-01-27T03:22:45.859Z,13.40
2018-01-27T03:25:12.885Z,14.07
2018-01-27T03:27:39.217Z,15.53
2018-01-27T03:30:05.515Z,17.53
2018-01-27T03:32:31.790Z,10.70
2018-01-27T03:34:58.063Z,14.50
2018-01-27T03:37:25.089Z,9.80
2018-01-27T03:39:52.090Z,10.80
2018-01-27T03:42:18.369Z,12.90
2018-01-27T03:44:44.636Z,19.90
2018-01-27T03:47:10.905Z,18.97
2018-01-27T03:49:37.200Z,18.77
2018-01-27T03:52:03.465Z,13.47
2018-01-27T03:54:30.560Z,14.93
2018-01-27T03:56:56.837Z,23.07
2018-01-27T03:59:23.095Z,17.50
2018-01-27T04:01:49.390Z,22.70
2018-01-27T04:04:15.660Z,18.40
2018-01-27T04:06:41.963Z,21.57
2018-01-27T04:09:08.239Z,19.07
2018-01-27T04:11:34.518Z,16.57
2018-01-27T04:14:00.808Z,18.80
2018-01-27T04:16:27.078Z,17.07
2018-01-27T04:18:53.382Z,19.83
2018-01-27T04:21:20.416Z,11.73
2018-01-27T04:23:47.426Z,14.03
2018-01-27T04:26:13.715Z,18.10
2018-01-27T04:28:39.999Z,17.30
2018-01-27T04:31:06.286Z,17.83
2018-01-27T04:33:33.302Z,17.47
2018-01-27T04:35:59.620Z,15.70
2018-01-27T04:38:25.911Z,18.10
2018-01-27T04:40:52.169Z,17.43
2018-01-27T04:43:19.182Z,17.83
2018-01-27T04:45:45.470Z,16.43
2018-01-27T04:48:11.725Z,19.93
2018-01-27T04:50:38.751Z,16.57
2018-01-27T04:53:05.011Z,14.73
2018-01-27T04:55:31.330Z,16.47
2018-01-27T04:57:57.603Z,15.30
2018-01-27T05:00:23.907Z,16.27
2018-01-27T05:02:50.201Z,13.93
2018-01-27T05:05:16.463Z,15.17
2018-01-27T05:07:43.478Z,19.60
2018-01-27T05:10:09.729Z,23.70
2018-01-27T05:12:35.991Z,14.47
2018-01-27T05:15:02.298Z,16.93
2018-01-27T05:17:28.587Z,19.97
2018-01-27T05:19:54.862Z,18.17
2018-01-27T05:22:21.864Z,16.97
2018-01-27T05:24:48.133Z,16.40
2018-01-27T05:27:14.445Z,20.10
2018-01-27T05:29:40.714Z,19.20
2018-01-27T05:32:07.005Z,17.87
2018-01-27T05:34:33.288Z,20.07
2018-01-27T05:36:59.571Z,16.03
2018-01-27T05:39:25.883Z,13.63
2018-01-27T05:41:52.138Z,12.77
2018-01-27T05:44:18.439Z,11.50
2018-01-27T05:46:44.690Z,10.80
2018-01-27T05:49:10.963Z,12.80
2018-01-27T05:51:37.997Z,18.30
2018-01-27T05:54:04.274Z,13.77
2018-01-27T05:56:30.599Z,13.27
2018-01-27T05:58:56.894Z,15.23
2018-01-27T06:01:23.205Z,14.80
2018-01-27T06:03:49.494Z,12.27
2018-01-27T06:06:15.754Z,18.43
2018-01-27T06:08:42.070Z,19.70
2018-01-27T06:11:08.366Z,15.70
2018-01-27T06:13:34.642Z,15.77
2018-01-27T06:16:00.943Z,30.13
2018-01-27T06:18:27.238Z,39.73
2018-01-27T06:20:53.580Z,116.00
2018-01-27T06:23:20.626Z,50.77
2018-01-27T06:25:46.873Z,40.33
2018-01-27T06:28:13.154Z,27.10
2018-01-27T06:30:39.412Z,18.60
2018-01-27T06:33:05.731Z,19.40
2018-01-27T06:35:31.991Z,12.17
2018-01-27T06:37:59.019Z,17.40
2018-01-27T06:40:26.079Z,22.73
2018-01-27T06:42:52.345Z,26.10
2018-01-27T06:45:18.647Z,23.83
2018-01-27T06:47:44.922Z,26.47
2018-01-27T06:50:11.187Z,33.37
2018-01-27T06:52:37.487Z,24.53
2018-01-27T06:55:03.774Z,36.10
2018-01-27T06:57:30.063Z,100.30
2018-01-27T06:59:57.087Z,66.40
2018-01-27T07:02:24.142Z,61.93
2018-01-27T07:04:50.454Z,73.17
2018-01-27T07:07:16.768Z,82.57
2018-01-27T07:09:43.022Z,190.27
2018-01-27T07:12:09.307Z,22.90
2018-01-27T07:14:35.695Z,94.03
2018-01-27T07:17:02.735Z,163.93
2018-01-27T07:19:29.048Z,75.90
2018-01-27T07:22:00.886Z,33.90
2018-01-27T07:24:27.257Z,159.17
2018-01-27T07:26:53.566Z,99.90
2018-01-27T07:29:19.827Z,184.87
2018-01-27T07:31:46.192Z,123.90
2018-01-27T07:34:12.473Z,168.57
2018-01-27T07:36:39.462Z,170.93
2018-01-27T07:39:05.781Z,107.30
2018-01-27T07:41:32.070Z,98.63
2018-01-27T07:43:58.345Z,137.90
2018-01-27T07:46:25.351Z,66.33
2018-01-27T07:48:51.626Z,57.63
2018-01-27T07:51:17.936Z,23.07
2018-01-27T07:53:44.210Z,134.90
2018-01-27T07:56:10.511Z,72.30
2018-01-27T07:58:36.853Z,124.10
2018-01-27T08:01:03.104Z,56.70
2018-01-27T08:03:29.432Z,66.53
2018-01-27T08:05:55.709Z,31.20
2018-01-27T08:08:22.774Z,89.57
2018-01-27T08:10:49.048Z,92.43
2018-01-27T08:13:16.052Z,81.47
2018-01-27T08:15:42.353Z,20.57
2018-01-27T08:18:08.614Z,53.43
2018-01-27T08:20:35.661Z,34.30
2018-01-27T08:23:01.948Z,84.53
2018-01-27T08:25:28.257Z,82.60
2018-01-27T08:27:54.798Z,82.50
2018-01-27T08:30:21.810Z,139.37
2018-01-27T08:33:09.096Z,159.33
2018-01-27T08:35:36.141Z,168.13
2018-01-27T08:38:02.394Z,105.80
2018-01-27T08:40:29.491Z,94.97
2018-01-27T08:42:56.063Z,58.93
2018-01-27T08:45:22.452Z,126.57
2018-01-27T08:47:49.470Z,69.13
2018-01-27T08:50:17.238Z,56.90
2018-01-27T08:52:43.637Z,65.00
2018-01-27T08:55:10.490Z,94.73
2018-01-27T08:58:05.543Z,18.30
2018-01-27T09:03:42.073Z,36.60
2018-01-27T09:06:08.466Z,37.10
2018-01-27T09:08:35.293Z,95.07
2018-01-27T09:11:01.620Z,35.17
2018-01-27T09:13:27.890Z,35.90
2018-01-27T09:15:54.174Z,133.20
2018-01-27T09:18:20.760Z,31.47
2018-01-27T09:20:47.218Z,69.63
2018-01-27T09:23:13.495Z,33.90
2018-01-27T09:25:39.781Z,88.03
2018-01-27T09:28:06.310Z,68.90
2018-01-27T09:30:33.327Z,48.20
2018-01-27T09:32:59.607Z,17.40
2018-01-27T09:35:25.874Z,31.17
2018-01-27T09:37:52.922Z,104.37
2018-01-27T09:40:19.366Z,24.40
2018-01-27T09:42:46.570Z,41.30
2018-01-27T09:45:13.557Z,32.53
2018-01-27T09:47:39.863Z,23.93
2018-01-27T09:50:06.902Z,18.93
2018-01-27T09:52:33.729Z,52.43
2018-01-27T09:55:00.570Z,21.50
2018-01-27T09:57:27.271Z,34.07
2018-01-27T09:59:53.804Z,32.97
2018-01-27T10:02:20.593Z,23.63
2018-01-27T10:04:46.893Z,27.83
2018-01-27T10:07:14.085Z,23.70
2018-01-27T10:09:42.299Z,42.97
2018-01-27T10:12:10.442Z,55.70
2018-01-27T10:14:36.837Z,29.80
2018-01-27T10:19:36.982Z,20.33
2018-01-27T10:22:04.319Z,29.70
2018-01-27T10:24:30.795Z,39.97
2018-01-27T10:26:57.099Z,27.50
2018-01-27T10:29:23.394Z,51.93
2018-01-27T10:31:49.741Z,27.13
2018-01-27T10:34:16.196Z,38.77
2018-01-27T10:36:42.719Z,31.37
2018-01-27T10:39:09.026Z,31.50
2018-01-27T10:41:46.387Z,30.13
2018-01-27T10:44:12.736Z,26.63
2018-01-27T10:46:38.993Z,41.67
2018-01-27T10:49:05.525Z,36.73
2018-01-27T10:51:32.443Z,43.37
2018-01-27T10:54:00.212Z,45.83
2018-01-27T10:56:26.518Z,28.20
2018-01-27T10:58:52.775Z,22.83
2018-01-27T11:01:19.105Z,87.63
2018-01-27T11:03:45.410Z,35.90
2018-01-27T11:06:11.732Z,27.10
2018-01-27T11:08:38.614Z,52.53
2018-01-27T11:11:04.887Z,42.53
2018-01-27T11:13:31.162Z,45.20
2018-01-27T11:15:57.765Z,30.90
2018-01-27T11:18:24.190Z,57.80
2018-01-27T11:20:50.556Z,67.63
2018-01-27T11:25:49.402Z,23.23
2018-01-27T11:28:16.439Z,33.57
2018-01-27T11:30:43.442Z,27.17
2018-01-27T11:33:09.794Z,33.67
2018-01-27T11:35:36.096Z,34.00
2018-01-27T11:38:03.517Z,26.57
2018-01-27T11:40:29.801Z,37.27
2018-01-27T11:42:56.161Z,62.17
2018-01-27T11:45:22.450Z,105.37
2018-01-27T11:47:48.733Z,36.57
2018-01-27T11:50:15.050Z,50.53
2018-01-27T11:52:42.759Z,29.73
2018-01-27T11:55:09.297Z,25.67
2018-01-27T11:57:35.588Z,34.17
2018-01-27T12:00:01.876Z,35.77
2018-01-27T12:02:28.190Z,24.37
2018-01-27T12:05:07.910Z,31.23
2018-01-27T12:07:34.222Z,25.57
2018-01-27T12:10:00.626Z,35.30
2018-01-27T12:12:27.650Z,27.77
2018-01-27T12:14:53.935Z,21.93
2018-01-27T12:17:20.280Z,22.20
2018-01-27T12:19:46.634Z,30.87
2018-01-27T12:22:13.259Z,26.70
2018-01-27T12:24:39.566Z,40.00
2018-01-27T12:27:05.822Z,36.23
2018-01-27T12:29:32.126Z,46.93
2018-01-27T12:31:58.545Z,28.90
2018-01-27T12:34:24.831Z,58.67
2018-01-27T12:36:51.115Z,36.73
2018-01-27T12:39:17.998Z,47.30
2018-01-27T12:41:44.351Z,28.60
2018-01-27T12:47:13.670Z,33.63
2018-01-27T12:49:41.600Z,40.47
2018-01-27T12:52:09.427Z,78.87
2018-01-27T12:54:36.343Z,58.83
2018-01-27T12:57:03.039Z,36.03
2018-01-27T12:59:30.714Z,41.33
2018-01-27T13:01:57.066Z,36.43
2018-01-27T13:04:23.451Z,37.30
2018-01-27T13:06:49.838Z,44.80
2018-01-27T13:09:16.526Z,38.30
2018-01-27T13:11:43.624Z,32.77
2018-01-27T13:14:10.554Z,39.90
2018-01-27T13:16:37.503Z,45.43
2018-01-27T13:19:03.927Z,36.03
2018-01-27T13:21:30.255Z,43.17
2018-01-27T13:23:56.594Z,41.20
2018-01-27T13:26:22.916Z,46.50
2018-01-27T13:28:49.965Z,45.53
2018-01-27T13:31:16.347Z,41.20
2018-01-27T13:33:42.680Z,38.70
2018-01-27T13:36:10.815Z,32.07
2018-01-27T13:38:38.002Z,28.23
2018-01-27T13:41:04.481Z,35.53
2018-01-27T13:43:30.949Z,42.03
2018-01-27T13:45:57.749Z,33.10
2018-01-27T13:48:24.970Z,36.50
2018-01-27T13:50:51.284Z,38.33
2018-01-27T13:53:17.623Z,48.83
2018-01-27T13:55:44.603Z,41.50
2018-01-27T13:58:11.869Z,36.33
2018-01-27T14:00:38.191Z,46.90
2018-01-27T14:03:04.512Z,66.63
2018-01-27T14:05:31.632Z,108.50
2018-01-27T14:07:58.020Z,49.03
2018-01-27T14:10:24.738Z,68.23
2018-01-27T14:12:51.100Z,56.83
2018-01-27T14:15:17.419Z,94.50
2018-01-27T14:17:44.459Z,44.70
2018-01-27T14:20:11.518Z,51.87
2018-01-27T14:22:37.791Z,65.87
2018-01-27T14:25:04.166Z,79.33
2018-01-27T14:27:30.484Z,96.40
2018-01-27T14:29:57.019Z,80.73
2018-01-27T14:32:24.469Z,88.00
2018-01-27T14:34:50.792Z,71.70
2018-01-27T14:37:17.099Z,62.40
2018-01-27T14:39:43.421Z,95.37
2018-01-27T14:42:09.984Z,51.27
2018-01-27T14:44:36.345Z,47.17
2018-01-27T14:47:02.622Z,66.07
2018-01-27T14:49:28.999Z,91.77
2018-01-27T14:51:55.292Z,57.70
2018-01-27T14:54:21.919Z,46.30
2018-01-27T14:56:49.450Z,43.53
2018-01-27T14:59:16.623Z,47.70
2018-01-27T15:01:42.930Z,36.17
2018-01-27T15:04:09.339Z,50.20
2018-01-27T15:06:35.834Z,54.03
2018-01-27T15:09:02.640Z,43.83
2018-01-27T15:11:29.046Z,34.93
2018-01-27T15:13:56.141Z,35.07
2018-01-27T15:16:22.457Z,51.40
2018-01-27T15:18:49.870Z,37.33
2018-01-27T15:21:16.230Z,45.00
2018-01-27T15:23:42.512Z,44.37
2018-01-27T15:26:08.810Z,53.40
2018-01-27T15:28:35.165Z,38.37
2018-01-27T15:31:01.454Z,45.13
2018-01-27T15:33:27.760Z,49.53
2018-01-27T15:35:54.039Z,42.97
2018-01-27T15:38:20.367Z,48.80
2018-01-27T15:40:47.381Z,50.83
2018-01-27T15:43:13.714Z,53.03
2018-01-27T15:45:40.795Z,54.17
2018-01-27T15:48:07.121Z,68.40
2018-01-27T15:50:33.494Z,66.80
2018-01-27T15:52:59.767Z,49.90
2018-01-27T15:55:26.162Z,77.37
2018-01-27T15:57:52.476Z,61.37
2018-01-27T16:00:18.822Z,60.47
2018-01-27T16:02:45.132Z,72.40
2018-01-27T16:05:11.459Z,79.73
2018-01-27T16:07:38.538Z,66.50
2018-01-27T16:10:04.831Z,50.17
2018-01-27T16:12:31.912Z,61.00
2018-01-27T16:14:58.244Z,65.33
2018-01-27T16:17:24.590Z,88.60
2018-01-27T16:19:50.934Z,111.47
2018-01-27T16:22:17.998Z,72.03
2018-01-27T16:24:44.277Z,74.90
2018-01-27T16:27:10.690Z,118.07
2018-01-27T16:29:37.103Z,118.97
2018-01-27T16:32:03.387Z,142.60
2018-01-27T16:34:29.680Z,83.77
2018-01-27T16:36:56.017Z,173.60
2018-01-27T16:39:22.382Z,146.93
2018-01-27T16:41:48.697Z,120.63
2018-01-27T16:44:14.987Z,101.47
2018-01-27T16:46:42.051Z,116.10
2018-01-27T16:49:08.366Z,120.37
2018-01-27T16:51:34.657Z,86.00
2018-01-27T16:54:00.969Z,139.87
2018-01-27T16:56:28.261Z,89.27
2018-01-27T16:58:54.537Z,98.10
2018-01-27T17:01:20.847Z,133.80
2018-01-27T17:03:47.128Z,133.67
2018-01-27T17:06:13.403Z,87.77
2018-01-27T17:08:39.838Z,92.23
2018-01-27T17:11:06.199Z,118.70
2018-01-27T17:13:33.289Z,91.77
2018-01-27T17:15:59.620Z,120.47
2018-01-27T17:18:25.969Z,106.37
2018-01-27T17:20:52.389Z,187.93
2018-01-27T17:23:19.469Z,108.77
2018-01-27T17:25:45.821Z,206.47
2018-01-27T17:28:12.204Z,155.63
2018-01-27T17:30:38.539Z,195.60
2018-01-27T17:33:05.014Z,172.43
2018-01-27T17:35:31.374Z,152.03
2018-01-27T17:37:57.947Z,145.10
2018-01-27T17:40:25.058Z,190.77
2018-01-27T17:42:52.479Z,167.73
2018-01-27T17:45:19.427Z,233.73
2018-01-27T17:47:47.061Z,298.73
2018-01-27T17:50:13.621Z,202.77
2018-01-27T17:52:40.403Z,209.87
2018-01-27T17:55:07.389Z,197.97
2018-01-27T17:57:33.951Z,200.27
2018-01-27T18:00:00.365Z,194.33
2018-01-27T18:02:27.495Z,154.30
2018-01-27T18:04:54.304Z,184.57
2018-01-27T18:07:23.610Z,180.43
2018-01-27T18:09:50.192Z,169.70
2018-01-27T18:12:17.059Z,147.87
2018-01-27T18:14:44.837Z,146.47
2018-01-27T18:17:12.316Z,140.17
2018-01-27T18:19:40.537Z,130.90
2018-01-27T18:22:07.714Z,124.63
2018-01-27T18:24:35.231Z,123.17
2018-01-27T18:27:02.325Z,97.80
2018-01-27T18:29:28.731Z,110.73
2018-01-27T18:31:55.889Z,116.90
2018-01-27T18:34:22.799Z,110.47
2018-01-27T18:36:49.571Z,110.90
2018-01-27T18:39:16.687Z,108.97
2018-01-27T18:41:43.072Z,146.33
2018-01-27T18:44:09.989Z,158.73
2018-01-27T18:46:37.534Z,145.33
2018-01-27T18:49:04.335Z,139.07
2018-01-27T18:51:30.702Z,140.00
2018-01-27T18:53:57.734Z,117.73
2018-01-27T18:56:24.921Z,145.60
2018-01-27T18:58:51.916Z,155.00
2018-01-27T19:01:18.853Z,183.00
2018-01-27T19:03:46.124Z,217.33
2018-01-27T19:06:14.458Z,219.13
2018-01-27T19:08:41.697Z,272.73
2018-01-27T19:11:09.531Z,222.97
2018-01-27T19:13:36.907Z,255.10
2018-01-27T19:16:04.591Z,241.03
2018-01-27T19:18:33.616Z,248.90
2018-01-27T19:21:00.655Z,227.40
2018-01-27T19:23:27.718Z,235.43
2018-01-27T19:25:55.332Z,220.70
2018-01-27T19:28:23.396Z,218.70
2018-01-27T19:30:49.836Z,217.87
2018-01-27T19:33:18.126Z,226.33
2018-01-27T19:35:45.409Z,230.40
2018-01-27T19:38:13.154Z,222.70
2018-01-27T19:40:40.598Z,289.23
2018-01-27T19:43:08.513Z,189.57
2018-01-27T19:45:36.192Z,181.93
2018-01-27T19:48:03.320Z,163.23
2018-01-27T19:50:30.172Z,166.37
2018-01-27T19:52:58.432Z,158.67
2018-01-27T19:55:28.011Z,161.70
2018-01-27T19:57:56.011Z,149.93
2018-01-27T20:00:22.560Z,150.07
2018-01-27T20:02:48.827Z,159.43
2018-01-27T20:05:16.811Z,148.23
2018-01-27T20:07:44.227Z,179.33
2018-01-27T20:10:10.982Z,163.83
2018-01-27T20:12:37.290Z,180.07
2018-01-27T20:15:04.679Z,180.00
2018-01-27T20:17:31.298Z,177.17
2018-01-27T20:19:58.514Z,181.77
2018-01-27T20:22:26.266Z,178.47
2018-01-27T20:24:53.650Z,144.30
2018-01-27T20:27:22.448Z,170.77
2018-01-27T20:29:49.102Z,154.27
2018-01-27T20:32:15.788Z,143.17
2018-01-27T20:34:43.213Z,153.30
2018-01-27T20:37:11.714Z,159.67
2018-01-27T20:39:38.738Z,173.83
2018-01-27T20:42:06.401Z,167.47
2018-01-27T20:44:32.849Z,196.60
2018-01-27T20:46:59.677Z,184.00
2018-01-27T20:49:26.609Z,169.03
2018-01-27T20:51:54.825Z,186.83
2018-01-27T20:54:21.189Z,184.20
2018-01-27T20:56:48.186Z,152.37
2018-01-27T20:59:14.654Z,168.13
2018-01-27T21:01:41.866Z,171.07
2018-01-27T21:04:08.609Z,158.43
2018-01-27T21:06:34.947Z,146.47
2018-01-27T21:09:02.006Z,141.83
2018-01-27T21:11:28.422Z,152.40
2018-01-27T21:13:54.930Z,137.47
2018-01-27T21:16:21.572Z,130.90
2018-01-27T21:18:47.893Z,145.00
2018-01-27T21:21:14.398Z,129.07
2018-01-27T21:23:41.210Z,137.40
2018-01-27T21:26:07.774Z,135.57
2018-01-27T21:28:34.300Z,127.23
2018-01-27T21:31:01.016Z,122.93
2018-01-27T21:33:27.352Z,132.13
2018-01-27T21:35:53.713Z,128.07
2018-01-27T21:38:20.755Z,116.90
2018-01-27T21:40:47.948Z,120.20
2018-01-27T21:43:14.243Z,122.23
2018-01-27T21:45:40.578Z,126.57
2018-01-27T21:48:06.869Z,105.53
2018-01-27T21:50:34.260Z,101.90
2018-01-27T21:53:00.724Z,108.73
2018-01-27T21:55:28.154Z,112.73
2018-01-27T21:57:54.435Z,98.20
2018-01-27T22:00:22.388Z,93.07
2018-01-27T22:02:49.686Z,83.80
2018-01-27T22:05:15.978Z,90.63
2018-01-27T22:07:42.308Z,83.43
2018-01-27T22:10:09.190Z,89.10
2018-01-27T22:12:36.185Z,87.10
2018-01-27T22:15:02.767Z,77.30
2018-01-27T22:17:29.145Z,73.90
2018-01-27T22:19:55.704Z,84.00
2018-01-27T22:22:22.800Z,71.53
2018-01-27T22:24:49.414Z,72.80
2018-01-27T22:27:15.720Z,70.63
2018-01-27T22:29:41.977Z,82.20
2018-01-27T22:32:08.302Z,81.10
2018-01-27T22:34:34.579Z,69.90
2018-01-27T22:37:00.874Z,75.07
2018-01-27T22:39:27.179Z,83.03
2018-01-27T22:41:53.453Z,89.13
2018-01-27T22:44:20.572Z,88.73
2018-01-27T22:46:46.858Z,89.63
2018-01-27T22:49:13.723Z,87.87
2018-01-27T22:51:40.375Z,100.70
2018-01-27T22:54:07.617Z,96.07
2018-01-27T22:56:34.231Z,85.53
2018-01-27T22:59:00.587Z,81.30
2018-01-27T23:01:28.562Z,88.17
2018-01-27T23:03:59.568Z,87.10
2018-01-27T23:06:27.572Z,92.47
2018-01-27T23:08:54.022Z,84.77
2018-01-27T23:11:20.469Z,99.33
2018-01-27T23:14:05.710Z,98.27
2018-01-27T23:16:33.787Z,84.63
2018-01-27T23:19:00.267Z,82.53
2018-01-27T23:21:26.586Z,87.03
2018-01-27T23:23:53.137Z,84.87
2018-01-27T23:26:19.447Z,93.77
2018-01-27T23:28:45.711Z,86.63
2018-01-27T23:31:12.747Z,87.50
2018-01-27T23:33:39.108Z,94.27
2018-01-27T23:36:05.486Z,83.20
2018-01-27T23:38:32.289Z,77.63
2018-01-27T23:40:59.319Z,92.20
2018-01-27T23:43:25.638Z,90.90
2018-01-27T23:45:52.731Z,78.30
2018-01-27T23:48:19.050Z,88.00
2018-01-27T23:50:45.358Z,88.80
2018-01-27T23:53:11.678Z,75.73
2018-01-27T23:55:38.002Z,70.20
2018-01-27T23:58:04.347Z,69.97
